createdAt,value
2023-04-06T00:00:34.366Z,100566.25
2023-04-06T00:03:01.016Z,100568.81
2023-04-06T00:05:28.701Z,100565.31
2023-04-06T00:07:56.844Z,100567.06
2023-04-06T00:10:23.234Z,100564.22
2023-04-06T00:12:49.686Z,100557.38
2023-04-06T00:15:16.447Z,100561.81
2023-04-06T00:17:42.908Z,100558.25
2023-04-06T00:20:09.919Z,100562.81
2023-04-06T00:22:36.567Z,100555.59
2023-04-06T00:25:03.145Z,100552.00
2023-04-06T00:27:29.625Z,100559.94
2023-04-06T00:29:56.295Z,100558.13
2023-04-06T00:32:22.740Z,100553.69
2023-04-06T00:34:49.229Z,100548.13
2023-04-06T00:37:15.784Z,100555.09
2023-04-06T00:39:42.356Z,100542.03
2023-04-06T00:42:13.859Z,100543.03
2023-04-06T00:44:41.862Z,100533.44
2023-04-06T00:47:08.642Z,100537.00
2023-04-06T00:49:35.126Z,100535.19
2023-04-06T00:52:02.391Z,100536.03
2023-04-06T00:54:31.538Z,100538.19
2023-04-06T00:56:58.219Z,100533.91
2023-04-06T00:59:24.770Z,100534.06
2023-04-06T01:01:51.407Z,100530.44
2023-04-06T01:04:17.966Z,100533.03
2023-04-06T01:06:44.408Z,100525.88
2023-04-06T01:09:11.030Z,100527.78
2023-04-06T01:11:37.628Z,100530.84
2023-04-06T01:14:04.573Z,100525.72
2023-04-06T01:16:31.384Z,100525.78
2023-04-06T01:18:57.962Z,100520.44
2023-04-06T01:21:24.500Z,100525.84
2023-04-06T01:23:50.989Z,100520.47
2023-04-06T01:26:17.645Z,100520.50
2023-04-06T01:28:45.224Z,100517.75
2023-04-06T01:31:12.688Z,100512.53
2023-04-06T01:33:39.170Z,100514.31
2023-04-06T01:36:06.153Z,100513.28
2023-04-06T01:38:32.682Z,100509.66
2023-04-06T01:40:59.220Z,100512.91
2023-04-06T01:43:25.670Z,100510.41
2023-04-06T01:45:52.158Z,100512.16
2023-04-06T01:48:18.678Z,100512.38
2023-04-06T01:50:45.094Z,100509.53
2023-04-06T01:53:11.644Z,100505.91
2023-04-06T01:55:38.123Z,100505.94
2023-04-06T01:58:04.585Z,100499.22
2023-04-06T02:00:31.269Z,100504.34
2023-04-06T02:02:57.851Z,100503.31
2023-04-06T02:05:24.311Z,100495.34
2023-04-06T02:07:50.725Z,100502.34
2023-04-06T02:10:17.227Z,100503.19
2023-04-06T02:12:43.661Z,100500.59
2023-04-06T02:15:10.672Z,100501.28
2023-04-06T02:17:37.220Z,100499.66
2023-04-06T02:20:03.900Z,100495.25
2023-04-06T02:22:30.545Z,100496.25
2023-04-06T02:24:56.978Z,100494.38
2023-04-06T02:27:23.488Z,100505.34
2023-04-06T02:29:49.968Z,100488.66
2023-04-06T02:32:16.463Z,100490.47
2023-04-06T02:34:42.860Z,100491.00
2023-04-06T02:37:09.319Z,100482.25
2023-04-06T02:39:35.980Z,100495.03
2023-04-06T02:42:02.444Z,100490.78
2023-04-06T02:44:28.861Z,100492.31
2023-04-06T02:46:55.422Z,100495.94
2023-04-06T02:49:21.932Z,100494.84
2023-04-06T02:51:48.784Z,100489.31
2023-04-06T02:54:15.212Z,100485.22
2023-04-06T02:56:41.642Z,100490.56
2023-04-06T02:59:08.345Z,100484.44
2023-04-06T03:01:35.328Z,100493.00
2023-04-06T03:04:01.809Z,100489.41
2023-04-06T03:06:28.255Z,100491.34
2023-04-06T03:08:54.716Z,100492.94
2023-04-06T03:11:21.675Z,100485.97
2023-04-06T03:13:48.115Z,100477.00
2023-04-06T03:16:14.639Z,100486.66
2023-04-06T03:18:41.238Z,100489.16
2023-04-06T03:21:07.622Z,100489.44
2023-04-06T03:23:34.237Z,100485.72
2023-04-06T03:26:02.702Z,100484.72
2023-04-06T03:28:29.270Z,100482.16
2023-04-06T03:30:56.026Z,100488.50
2023-04-06T03:33:22.563Z,100486.94
2023-04-06T03:35:48.982Z,100492.81
2023-04-06T03:38:15.628Z,100501.63
2023-04-06T03:40:42.388Z,100495.59
2023-04-06T03:43:08.887Z,100500.72
2023-04-06T03:45:35.610Z,100504.03
2023-04-06T03:48:02.124Z,100495.16
2023-04-06T03:50:28.559Z,100495.13
2023-04-06T03:52:55.088Z,100497.16
2023-04-06T03:55:21.474Z,100497.13
2023-04-06T03:57:47.924Z,100496.75
2023-04-06T04:00:14.760Z,100505.50
2023-04-06T04:02:41.332Z,100509.03
2023-04-06T04:05:08.208Z,100501.88
2023-04-06T04:07:34.691Z,100504.22
2023-04-06T04:10:01.156Z,100507.84
2023-04-06T04:12:27.563Z,100515.78
2023-04-06T04:14:54.108Z,100519.22
2023-04-06T04:17:21.075Z,100519.97
2023-04-06T04:19:47.533Z,100515.41
2023-04-06T04:22:14.006Z,100518.19
2023-04-06T04:24:40.571Z,100520.97
2023-04-06T04:27:07.067Z,100524.88
2023-04-06T04:29:33.594Z,100523.22
2023-04-06T04:32:00.206Z,100522.25
2023-04-06T04:34:26.971Z,100522.75
2023-04-06T04:36:53.668Z,100525.34
2023-04-06T04:39:20.222Z,100527.88
2023-04-06T04:41:46.753Z,100530.34
2023-04-06T04:44:13.225Z,100533.81
2023-04-06T04:46:40.158Z,100529.38
2023-04-06T04:49:06.683Z,100523.97
2023-04-06T04:51:33.705Z,100523.53
2023-04-06T04:54:00.327Z,100526.19
2023-04-06T04:56:28.497Z,100529.47
2023-04-06T04:58:55.170Z,100529.63
2023-04-06T05:01:21.798Z,100529.47
2023-04-06T05:03:48.396Z,100530.03
2023-04-06T05:06:14.932Z,100521.50
2023-04-06T05:08:42.207Z,100530.34
2023-04-06T05:11:09.257Z,100527.69
2023-04-06T05:13:35.740Z,100520.91
2023-04-06T05:16:02.300Z,100538.44
2023-04-06T05:18:28.996Z,100529.28
2023-04-06T05:20:55.630Z,100530.78
2023-04-06T05:23:22.050Z,100528.31
2023-04-06T05:25:48.539Z,100536.50
2023-04-06T05:28:16.837Z,100533.31
2023-04-06T05:30:44.276Z,100536.75
2023-04-06T05:33:11.750Z,100531.03
2023-04-06T05:35:38.323Z,100533.66
2023-04-06T05:38:07.005Z,100540.81
2023-04-06T05:40:33.423Z,100541.75
2023-04-06T05:42:59.873Z,100529.81
2023-04-06T05:45:26.294Z,100536.25
2023-04-06T05:47:52.831Z,100537.97
2023-04-06T05:50:19.480Z,100535.28
2023-04-06T05:52:47.357Z,100541.38
2023-04-06T05:55:13.848Z,100535.06
2023-04-06T05:57:40.471Z,100534.97
2023-04-06T06:00:09.810Z,100532.41
2023-04-06T06:02:36.553Z,100541.16
2023-04-06T06:05:07.715Z,100539.75
2023-04-06T06:07:34.166Z,100539.72
2023-04-06T06:10:00.600Z,100537.16
2023-04-06T06:12:27.147Z,100539.78
2023-04-06T06:14:53.575Z,100536.25
2023-04-06T06:17:20.210Z,100543.84
2023-04-06T06:19:46.715Z,100541.41
2023-04-06T06:22:13.125Z,100539.66
2023-04-06T06:24:39.500Z,100543.97
2023-04-06T06:27:06.093Z,100536.31
2023-04-06T06:29:32.535Z,100539.78
2023-04-06T06:31:59.149Z,100542.50
2023-04-06T06:34:26.365Z,100544.44
2023-04-06T06:36:52.942Z,100540.97
2023-04-06T06:39:19.491Z,100546.13
2023-04-06T06:41:46.043Z,100540.28
2023-04-06T06:44:12.518Z,100544.59
2023-04-06T06:46:38.957Z,100544.16
2023-04-06T06:49:05.423Z,100545.00
2023-04-06T06:51:31.876Z,100548.34
2023-04-06T06:53:58.469Z,100551.31
2023-04-06T06:56:25.021Z,100549.66
2023-04-06T06:58:51.569Z,100546.84
2023-04-06T07:01:18.640Z,100541.13
2023-04-06T07:03:45.419Z,100539.25
2023-04-06T07:06:11.953Z,100539.97
2023-04-06T07:08:38.490Z,100543.59
2023-04-06T07:11:05.175Z,100532.28
2023-04-06T07:13:31.622Z,100533.91
2023-04-06T07:15:58.050Z,100537.47
2023-04-06T07:18:24.617Z,100536.53
2023-04-06T07:20:51.033Z,100537.59
2023-04-06T07:23:17.491Z,100537.66
2023-04-06T07:25:43.968Z,100538.44
2023-04-06T07:28:10.467Z,100542.03
2023-04-06T07:30:38.206Z,100537.72
2023-04-06T07:33:05.305Z,100536.03
2023-04-06T07:35:32.077Z,100530.81
2023-04-06T07:37:58.702Z,100531.66
2023-04-06T07:40:27.098Z,100529.91
2023-04-06T07:42:55.228Z,100531.66
2023-04-06T07:45:22.702Z,100524.66
2023-04-06T07:47:49.366Z,100518.50
2023-04-06T07:50:15.988Z,100524.63
2023-04-06T07:52:42.620Z,100525.50
2023-04-06T07:55:09.360Z,100519.25
2023-04-06T07:57:35.957Z,100527.25
2023-04-06T08:00:02.542Z,100525.41
2023-04-06T08:02:29.160Z,100513.09
2023-04-06T08:04:55.851Z,100520.84
2023-04-06T08:07:22.351Z,100513.69
2023-04-06T08:09:48.827Z,100520.66
2023-04-06T08:12:15.422Z,100513.50
2023-04-06T08:14:42.155Z,100524.69
2023-04-06T08:17:08.736Z,100524.75
2023-04-06T08:19:35.310Z,100517.78
2023-04-06T08:22:01.755Z,100515.94
2023-04-06T08:24:28.211Z,100514.09
2023-04-06T08:26:54.607Z,100521.13
2023-04-06T08:29:21.079Z,100516.38
2023-04-06T08:31:47.494Z,100520.13
2023-04-06T08:34:14.585Z,100518.91
2023-04-06T08:36:42.363Z,100519.88
2023-04-06T08:39:08.877Z,100523.25
2023-04-06T08:41:35.504Z,100518.34
2023-04-06T08:44:03.332Z,100516.50
2023-04-06T08:46:31.507Z,100518.50
2023-04-06T08:49:02.679Z,100516.16
2023-04-06T08:51:31.255Z,100524.13
2023-04-06T08:53:59.197Z,100508.09
2023-04-06T08:56:27.207Z,100511.53
2023-04-06T08:58:55.928Z,100513.69
2023-04-06T09:01:26.533Z,100510.47
2023-04-06T09:03:59.587Z,100507.19
2023-04-06T09:06:30.082Z,100503.53
2023-04-06T09:08:57.587Z,100501.16
2023-04-06T09:11:24.140Z,100493.06
2023-04-06T09:13:55.255Z,100491.06
2023-04-06T09:16:22.250Z,100499.00
2023-04-06T09:18:49.406Z,100492.88
2023-04-06T09:21:18.627Z,100495.47
2023-04-06T09:23:45.486Z,100497.25
2023-04-06T09:26:19.322Z,100496.06
2023-04-06T09:28:51.042Z,100491.91
2023-04-06T09:31:26.843Z,100494.94
2023-04-06T09:33:54.062Z,100482.78
2023-04-06T09:36:21.311Z,100485.59
2023-04-06T09:38:56.178Z,100484.47
2023-04-06T09:41:30.607Z,100487.44
2023-04-06T09:44:14.151Z,100474.66
2023-04-06T09:46:59.868Z,100471.56
2023-04-06T09:49:33.411Z,100474.75
2023-04-06T09:52:01.635Z,100473.41
2023-04-06T09:54:32.385Z,100463.44
2023-04-06T09:57:19.191Z,100466.13
2023-04-06T09:59:51.585Z,100470.28
2023-04-06T10:02:35.988Z,100467.50
2023-04-06T10:05:17.644Z,100459.00
2023-04-06T10:10:23.495Z,100461.06
2023-04-06T10:12:50.762Z,100455.53
2023-04-06T10:15:21.002Z,100453.91
2023-04-06T10:17:49.344Z,100452.09
2023-04-06T10:20:22.718Z,100450.38
2023-04-06T10:23:15.196Z,100442.28
2023-04-06T10:25:56.700Z,100437.69
2023-04-06T10:28:24.306Z,100443.44
2023-04-06T10:30:57.343Z,100433.78
2023-04-06T10:33:23.819Z,100435.94
2023-04-06T10:35:50.317Z,100438.50
2023-04-06T10:38:21.056Z,100436.75
2023-04-06T10:40:50.724Z,100426.59
2023-04-06T10:43:22.116Z,100432.31
2023-04-06T10:45:57.184Z,100428.78
2023-04-06T10:48:24.848Z,100423.47
2023-04-06T10:50:53.039Z,100419.16
2023-04-06T10:53:27.681Z,100420.97
2023-04-06T10:55:56.761Z,100419.06
2023-04-06T10:58:27.536Z,100410.91
2023-04-06T11:00:55.238Z,100409.22
2023-04-06T11:03:21.979Z,100408.09
2023-04-06T11:05:51.952Z,100400.25
2023-04-06T11:08:32.218Z,100392.53
2023-04-06T11:11:16.229Z,100391.59
2023-04-06T11:13:44.909Z,100391.28
2023-04-06T11:16:19.270Z,100386.25
2023-04-06T11:19:01.707Z,100388.38
2023-04-06T11:21:48.230Z,100384.94
2023-04-06T11:24:17.758Z,100381.44
2023-04-06T11:26:52.072Z,100378.94
2023-04-06T11:29:21.289Z,100370.63
2023-04-06T11:31:52.643Z,100368.09
2023-04-06T11:34:21.722Z,100359.19
2023-04-06T11:36:49.780Z,100357.66
2023-04-06T11:39:21.674Z,100348.31
2023-04-06T11:41:52.067Z,100355.25
2023-04-06T11:44:35.635Z,100345.28
2023-04-06T11:47:03.769Z,100342.38
2023-04-06T11:49:31.674Z,100343.19
2023-04-06T11:51:59.135Z,100339.66
2023-04-06T11:54:36.651Z,100333.53
2023-04-06T11:57:04.716Z,100331.50
2023-04-06T11:59:31.795Z,100331.13
2023-04-06T12:01:59.093Z,100330.03
2023-04-06T12:04:25.830Z,100330.72
2023-04-06T12:06:52.267Z,100330.34
2023-04-06T12:09:19.175Z,100328.78
2023-04-06T12:11:45.608Z,100325.16
2023-04-06T12:14:13.367Z,100334.56
2023-04-06T12:16:40.824Z,100332.75
2023-04-06T12:19:07.603Z,100331.78
2023-04-06T12:21:36.234Z,100327.47
2023-04-06T12:24:02.680Z,100330.72
2023-04-06T12:26:29.357Z,100324.81
2023-04-06T12:28:55.939Z,100330.16
2023-04-06T12:31:23.680Z,100331.28
2023-04-06T12:33:51.311Z,100324.78
2023-04-06T12:36:20.152Z,100325.91
2023-04-06T12:38:49.096Z,100323.88
2023-04-06T12:41:15.936Z,100325.00
2023-04-06T12:43:43.514Z,100316.84
2023-04-06T12:46:11.057Z,100325.88
2023-04-06T12:48:38.047Z,100321.66
2023-04-06T12:51:06.363Z,100325.94
2023-04-06T12:53:34.189Z,100313.88
2023-04-06T12:56:01.532Z,100313.50
2023-04-06T12:58:28.750Z,100313.25
2023-04-06T13:00:55.888Z,100317.53
2023-04-06T13:03:23.351Z,100310.97
2023-04-06T13:05:51.826Z,100309.28
2023-04-06T13:08:20.620Z,100305.28
2023-04-06T13:10:54.514Z,100301.84
2023-04-06T13:13:26.510Z,100301.34
2023-04-06T13:15:53.910Z,100301.13
2023-04-06T13:18:21.038Z,100302.22
2023-04-06T13:20:48.752Z,100294.09
2023-04-06T13:23:15.788Z,100300.88
2023-04-06T13:25:42.408Z,100302.44
2023-04-06T13:28:09.622Z,100298.16
2023-04-06T13:30:36.664Z,100300.59
2023-04-06T13:33:03.485Z,100298.09
2023-04-06T13:35:29.976Z,100293.75
2023-04-06T13:37:56.400Z,100295.03
2023-04-06T13:40:22.862Z,100295.81
2023-04-06T13:42:49.330Z,100294.66
2023-04-06T13:45:16.231Z,100295.88
2023-04-06T13:47:42.661Z,100295.38
2023-04-06T13:50:09.435Z,100293.44
2023-04-06T13:52:37.185Z,100294.97
2023-04-06T13:55:03.735Z,100297.19
2023-04-06T13:57:30.996Z,100292.38
2023-04-06T13:59:57.380Z,100293.38
2023-04-06T14:02:28.230Z,100300.03
2023-04-06T14:04:55.288Z,100294.81
2023-04-06T14:07:23.555Z,100291.06
2023-04-06T14:09:51.164Z,100295.16
2023-04-06T14:12:17.557Z,100291.53
2023-04-06T14:14:43.997Z,100296.09
2023-04-06T14:17:10.673Z,100300.31
2023-04-06T14:19:37.161Z,100293.66
2023-04-06T14:22:03.714Z,100289.38
2023-04-06T14:24:37.811Z,100289.81
2023-04-06T14:27:04.781Z,100285.19
2023-04-06T14:29:31.141Z,100298.09
2023-04-06T14:32:00.830Z,100292.16
2023-04-06T14:34:28.026Z,100294.81
2023-04-06T14:36:54.504Z,100288.47
2023-04-06T14:39:21.417Z,100288.28
2023-04-06T14:41:49.806Z,100291.19
2023-04-06T14:44:17.476Z,100293.88
2023-04-06T14:46:44.038Z,100294.19
2023-04-06T14:49:10.632Z,100297.03
2023-04-06T14:51:37.072Z,100287.25
2023-04-06T14:54:04.072Z,100285.31
2023-04-06T14:56:32.121Z,100286.25
2023-04-06T14:58:59.941Z,100293.25
2023-04-06T15:01:26.413Z,100292.13
2023-04-06T15:03:56.176Z,100287.91
2023-04-06T15:06:22.653Z,100291.56
2023-04-06T15:08:49.936Z,100290.25
2023-04-06T15:11:16.681Z,100297.75
2023-04-06T15:13:43.069Z,100288.84
2023-04-06T15:16:09.600Z,100292.06
2023-04-06T15:18:36.460Z,100299.78
2023-04-06T15:21:03.510Z,100301.78
2023-04-06T15:23:31.045Z,100296.28
2023-04-06T15:25:58.620Z,100299.13
2023-04-06T15:28:25.273Z,100302.13
2023-04-06T15:30:51.997Z,100301.28
2023-04-06T15:33:21.276Z,100296.94
2023-04-06T15:35:47.823Z,100298.31
2023-04-06T15:38:14.467Z,100302.66
2023-04-06T15:40:46.066Z,100303.03
2023-04-06T15:43:13.500Z,100305.41
2023-04-06T15:45:41.625Z,100302.44
2023-04-06T15:48:08.737Z,100299.41
2023-04-06T15:50:36.021Z,100306.19
2023-04-06T15:53:02.515Z,100310.31
2023-04-06T15:55:29.022Z,100313.47
2023-04-06T15:57:55.420Z,100313.59
2023-04-06T16:00:22.315Z,100320.41
2023-04-06T16:02:49.003Z,100308.34
2023-04-06T16:05:15.656Z,100310.50
2023-04-06T16:07:42.977Z,100317.09
2023-04-06T16:10:10.023Z,100315.66
2023-04-06T16:12:36.451Z,100318.38
2023-04-06T16:15:02.986Z,100302.56
2023-04-06T16:17:29.532Z,100304.34
2023-04-06T16:19:56.126Z,100306.19
2023-04-06T16:22:22.526Z,100310.94
2023-04-06T16:24:48.975Z,100312.47
2023-04-06T16:27:15.811Z,100314.41
2023-04-06T16:29:42.356Z,100312.84
2023-04-06T16:32:12.173Z,100306.69
2023-04-06T16:34:38.762Z,100312.03
2023-04-06T16:37:05.250Z,100310.06
2023-04-06T16:39:31.731Z,100314.50
2023-04-06T16:41:58.297Z,100317.31
2023-04-06T16:44:24.692Z,100310.69
2023-04-06T16:46:51.147Z,100311.00
2023-04-06T16:49:19.345Z,100308.03
2023-04-06T16:51:45.907Z,100309.34
2023-04-06T16:54:12.378Z,100308.19
2023-04-06T16:56:38.797Z,100310.13
2023-04-06T16:59:08.189Z,100310.22
2023-04-06T17:01:34.822Z,100307.53
2023-04-06T17:04:02.052Z,100305.41
2023-04-06T17:06:28.703Z,100320.22
2023-04-06T17:08:55.297Z,100314.19
2023-04-06T17:11:27.752Z,100315.63
2023-04-06T17:13:55.474Z,100316.13
2023-04-06T17:16:22.084Z,100321.41
2023-04-06T17:18:48.533Z,100323.84
2023-04-06T17:21:16.855Z,100320.03
2023-04-06T17:23:44.442Z,100327.59
2023-04-06T17:26:10.986Z,100326.34
2023-04-06T17:28:42.499Z,100326.28
2023-04-06T17:31:10.867Z,100327.78
2023-04-06T17:33:38.891Z,100334.53
2023-04-06T17:36:06.505Z,100336.69
2023-04-06T17:38:33.005Z,100339.72
2023-04-06T17:41:01.210Z,100336.72
2023-04-06T17:43:27.636Z,100343.81
2023-04-06T17:45:54.030Z,100336.59
2023-04-06T17:48:20.541Z,100335.13
2023-04-06T17:50:47.047Z,100350.44
2023-04-06T17:53:13.502Z,100348.44
2023-04-06T17:55:39.900Z,100353.09
2023-04-06T17:58:06.513Z,100357.66
2023-04-06T18:00:33.138Z,100359.19
2023-04-06T18:02:59.684Z,100365.44
2023-04-06T18:05:29.255Z,100365.22
2023-04-06T18:07:55.845Z,100363.00
2023-04-06T18:10:23.194Z,100364.03
2023-04-06T18:12:49.882Z,100371.97
2023-04-06T18:15:16.929Z,100365.19
2023-04-06T18:17:44.564Z,100369.84
2023-04-06T18:20:13.375Z,100366.34
2023-04-06T18:22:41.484Z,100374.03
2023-04-06T18:25:08.258Z,100374.47
2023-04-06T18:27:34.737Z,100374.41
2023-04-06T18:30:01.228Z,100381.72
2023-04-06T18:32:30.572Z,100378.28
2023-04-06T18:34:57.755Z,100378.59
2023-04-06T18:37:25.389Z,100379.31
2023-04-06T18:39:53.268Z,100371.50
2023-04-06T18:42:19.965Z,100377.84
2023-04-06T18:44:46.877Z,100375.38
2023-04-06T18:47:13.394Z,100374.28
2023-04-06T18:49:39.857Z,100372.00
2023-04-06T18:52:06.735Z,100374.38
2023-04-06T18:54:33.285Z,100377.44
2023-04-06T18:56:59.674Z,100379.06
2023-04-06T18:59:30.047Z,100379.28
2023-04-06T19:01:56.602Z,100374.84
2023-04-06T19:04:23.368Z,100379.50
2023-04-06T19:06:49.888Z,100380.69
2023-04-06T19:09:16.392Z,100371.78
2023-04-06T19:11:42.815Z,100365.78
2023-04-06T19:14:09.257Z,100383.03
2023-04-06T19:16:40.836Z,100377.72
2023-04-06T19:19:07.531Z,100386.00
2023-04-06T19:21:33.932Z,100381.69
2023-04-06T19:24:00.531Z,100366.88
2023-04-06T19:26:28.058Z,100377.34
2023-04-06T19:28:55.283Z,100374.69
2023-04-06T19:31:22.034Z,100373.94
2023-04-06T19:33:48.611Z,100376.56
2023-04-06T19:36:16.044Z,100378.41
2023-04-06T19:38:42.645Z,100376.50
2023-04-06T19:41:09.439Z,100375.75
2023-04-06T19:43:35.876Z,100378.53
2023-04-06T19:46:03.134Z,100383.06
2023-04-06T19:48:29.918Z,100376.75
2023-04-06T19:50:56.263Z,100367.13
2023-04-06T19:53:22.983Z,100368.66
2023-04-06T19:55:50.011Z,100368.03
2023-04-06T19:58:16.663Z,100365.66
2023-04-06T20:00:43.035Z,100369.19
2023-04-06T20:03:09.702Z,100367.50
2023-04-06T20:05:36.329Z,100357.91
2023-04-06T20:08:02.802Z,100357.59
2023-04-06T20:10:29.205Z,100364.00
2023-04-06T20:12:55.702Z,100353.59
2023-04-06T20:15:23.035Z,100356.09
2023-04-06T20:17:49.624Z,100358.75
2023-04-06T20:20:16.100Z,100352.81
2023-04-06T20:22:42.534Z,100351.09
2023-04-06T20:25:10.943Z,100359.13
2023-04-06T20:27:37.357Z,100352.78
2023-04-06T20:30:04.673Z,100353.72
2023-04-06T20:32:31.594Z,100351.16
2023-04-06T20:34:58.008Z,100346.66
2023-04-06T20:37:24.741Z,100350.22
2023-04-06T20:39:51.411Z,100353.19
2023-04-06T20:42:18.139Z,100349.88
2023-04-06T20:44:44.610Z,100344.13
2023-04-06T20:47:11.097Z,100352.63
2023-04-06T20:49:37.446Z,100345.53
2023-04-06T20:52:03.821Z,100345.34
2023-04-06T20:54:30.327Z,100343.69
2023-04-06T20:57:00.490Z,100346.13
2023-04-06T20:59:27.855Z,100336.88
2023-04-06T21:01:54.432Z,100340.44
2023-04-06T21:04:22.495Z,100343.78
2023-04-06T21:06:49.569Z,100336.88
2023-04-06T21:09:16.473Z,100337.75
2023-04-06T21:11:42.868Z,100336.09
2023-04-06T21:14:09.431Z,100326.03
2023-04-06T21:16:36.562Z,100329.75
2023-04-06T21:19:03.149Z,100327.78
2023-04-06T21:21:29.550Z,100323.94
2023-04-06T21:23:56.795Z,100322.19
2023-04-06T21:26:23.170Z,100319.47
2023-04-06T21:28:49.563Z,100309.97
2023-04-06T21:31:16.635Z,100309.16
2023-04-06T21:33:43.138Z,100312.75
2023-04-06T21:36:09.700Z,100302.41
2023-04-06T21:38:36.258Z,100310.06
2023-04-06T21:41:02.704Z,100309.59
2023-04-06T21:43:29.238Z,100309.84
2023-04-06T21:45:55.685Z,100302.78
2023-04-06T21:48:22.150Z,100310.88
2023-04-06T21:50:48.518Z,100306.00
2023-04-06T21:53:14.978Z,100307.28
2023-04-06T21:55:45.378Z,100305.41
2023-04-06T21:58:12.298Z,100304.38
2023-04-06T22:00:39.621Z,100295.63
2023-04-06T22:03:06.434Z,100287.44
2023-04-06T22:05:33.360Z,100289.34
2023-04-06T22:08:02.130Z,100282.56
2023-04-06T22:10:29.232Z,100287.72
2023-04-06T22:12:55.843Z,100284.78
2023-04-06T22:15:22.302Z,100288.91
2023-04-06T22:17:48.672Z,100284.69
2023-04-06T22:20:15.529Z,100280.69
2023-04-06T22:22:42.115Z,100280.72
2023-04-06T22:25:08.944Z,100274.19
2023-04-06T22:27:35.510Z,100270.69
2023-04-06T22:30:02.540Z,100271.34
2023-04-06T22:32:29.142Z,100269.38
2023-04-06T22:34:55.776Z,100270.47
2023-04-06T22:37:22.201Z,100267.03
2023-04-06T22:39:48.573Z,100272.22
2023-04-06T22:42:14.979Z,100271.59
2023-04-06T22:44:41.491Z,100268.44
2023-04-06T22:47:07.980Z,100270.88
2023-04-06T22:49:34.377Z,100264.38
2023-04-06T22:52:00.801Z,100264.22
2023-04-06T22:54:27.363Z,100256.47
2023-04-06T22:56:54.131Z,100260.53
2023-04-06T22:59:20.657Z,100257.63
2023-04-06T23:01:47.192Z,100257.69
2023-04-06T23:04:13.828Z,100254.78
2023-04-06T23:06:40.514Z,100242.97
2023-04-06T23:09:10.818Z,100236.94
2023-04-06T23:11:37.240Z,100243.88
2023-04-06T23:14:03.650Z,100245.69
2023-04-06T23:16:30.043Z,100226.72
2023-04-06T23:18:56.796Z,100238.28
2023-04-06T23:21:23.190Z,100238.44
2023-04-06T23:23:49.550Z,100233.31
2023-04-06T23:26:16.032Z,100229.75
2023-04-06T23:28:42.412Z,100239.22
2023-04-06T23:31:08.814Z,100226.53
2023-04-06T23:33:35.380Z,100227.88
2023-04-06T23:36:01.850Z,100218.97
2023-04-06T23:38:28.312Z,100224.28
2023-04-06T23:40:54.661Z,100218.38
2023-04-06T23:43:21.004Z,100217.97
2023-04-06T23:45:47.331Z,100219.56
2023-04-06T23:48:13.728Z,100212.16
2023-04-06T23:50:40.848Z,100208.44
2023-04-06T23:53:07.273Z,100210.13
2023-04-06T23:55:33.698Z,100212.72
2023-04-06T23:58:00.419Z,100206.63
